Time;durP1;ratioP1;P1;durP2;ratioP2;P2;SDS_P1;SDS_P2;PMS_P1;PMS_P2;Temp;Humidity;BMP_temperature;BMP_pressure;BME280_temperature;BME280_humidity;BME280_pressure;Samples;Min_cycle;Max_cycle;Signal;HPM_P1;HPM_P2
2022/04/30 14:38:50;;;;;;;2.80;2.60;;;22.10;70.40;;;;;;6375518;23;88610;-71
2022/04/30 14:41:52;;;;;;;2.78;2.58;;;22.10;70.50;;;;;;5932618;29;88433;-71
2022/04/30 14:44:54;;;;;;;2.60;2.40;;;22.10;70.50;;;;;;5917755;29;89376;-70
2022/04/30 14:47:56;;;;;;;2.60;2.40;;;22.10;71.40;;;;;;5912256;29;89207;-71
2022/04/30 14:50:58;;;;;;;3.05;2.40;;;22.10;70.50;;;;;;5912358;29;90179;-71
2022/04/30 14:54:03;;;;;;;2.63;2.42;;;22.10;70.60;;;;;;5920375;29;89098;-70
2022/04/30 14:57:06;;;;;;;3.30;2.47;;;22.10;70.70;;;;;;5932608;29;89363;-71
2022/04/30 15:00:09;;;;;;;3.17;2.60;;;22.10;70.70;;;;;;5921761;29;89224;-71
2022/04/30 15:03:13;;;;;;;2.58;2.38;;;22.10;70.70;;;;;;5900205;29;89365;-70
2022/04/30 15:06:15;;;;;;;2.50;2.30;;;22.10;70.80;;;;;;5906265;29;89144;-72
2022/04/30 15:09:18;;;;;;;2.97;2.67;;;22.10;70.70;;;;;;5928584;29;89068;-71
2022/04/30 15:12:20;;;;;;;2.85;2.55;;;22.10;70.80;;;;;;5913081;29;88325;-72
2022/04/30 15:15:22;;;;;;;2.70;2.50;;;22.10;70.80;;;;;;5900061;29;88005;-71
2022/04/30 15:18:27;;;;;;;3.35;2.40;;;22.10;70.80;;;;;;5899467;29;89150;-71
2022/04/30 15:21:31;;;;;;;2.92;2.72;;;22.00;70.80;;;;;;5899294;29;88868;-72
2022/04/30 15:24:35;;;;;;;3.10;2.75;;;22.00;70.80;;;;;;5899984;29;88818;-71
2022/04/30 15:27:37;;;;;;;2.65;2.45;;;22.00;71.00;;;;;;5899687;29;89143;-71
2022/04/30 15:30:42;;;;;;;2.80;2.60;;;22.00;71.00;;;;;;5898898;29;88725;-71
2022/04/30 15:33:44;;;;;;;2.90;2.70;;;22.00;71.00;;;;;;5915532;29;88899;-71
2022/04/30 15:36:46;;;;;;;2.50;2.30;;;22.00;71.10;;;;;;5904281;29;89207;-72
2022/04/30 15:39:49;;;;;;;3.20;2.60;;;22.00;71.20;;;;;;5920895;29;89154;-72
2022/04/30 15:42:51;;;;;;;2.90;2.60;;;22.00;71.20;;;;;;5922466;29;87187;-71
2022/04/30 15:45:53;;;;;;;2.63;2.40;;;22.00;71.30;;;;;;5921964;29;89074;-72
2022/04/30 15:52:14;;;;;;;2.95;2.72;;;22.00;71.50;;;;;;5920432;29;89024;-71
2022/04/30 15:55:19;;;;;;;3.47;2.63;;;22.00;71.50;;;;;;5920355;29;89088;-70
2022/04/30 15:58:21;;;;;;;7.57;3.22;;;22.10;71.60;;;;;;5921495;29;89105;-69
2022/04/30 16:01:24;;;;;;;5.50;3.10;;;22.00;70.80;;;;;;5920500;29;89317;-71
2022/04/30 16:04:26;;;;;;;4.03;2.70;;;22.00;72.00;;;;;;5921036;29;87831;-71
2022/04/30 16:07:28;;;;;;;6.40;3.20;;;22.00;71.30;;;;;;5921076;29;89052;-72
2022/04/30 16:10:32;;;;;;;5.25;2.90;;;22.00;70.00;;;;;;5920524;29;88431;-72
2022/04/30 16:13:34;;;;;;;4.20;2.90;;;22.00;69.20;;;;;;5922031;29;87373;-73
2022/04/30 16:16:36;;;;;;;6.65;2.95;;;22.00;69.20;;;;;;5920760;29;89442;-71
2022/04/30 16:19:38;;;;;;;3.78;2.85;;;22.00;69.40;;;;;;5921176;29;88904;-72
2022/04/30 16:22:40;;;;;;;5.43;3.20;;;22.00;69.30;;;;;;5920099;29;89989;-71
2022/04/30 16:25:44;;;;;;;6.10;3.05;;;22.00;70.50;;;;;;5898846;29;89285;-70
2022/04/30 16:28:46;;;;;;;5.70;2.90;;;22.00;69.40;;;;;;5917085;29;89872;-71
2022/04/30 16:31:49;;;;;;;5.65;3.22;;;22.00;69.10;;;;;;5920910;29;88070;-72
2022/04/30 16:34:52;;;;;;;5.22;2.90;;;22.00;69.80;;;;;;5920133;29;88251;-72
2022/04/30 16:37:55;;;;;;;4.97;3.00;;;22.00;70.30;;;;;;5921139;29;88264;-71
2022/04/30 16:41:00;;;;;;;3.17;2.65;;;22.00;70.30;;;;;;5920189;29;87153;-71
2022/04/30 16:44:03;;;;;;;3.30;2.90;;;22.00;70.50;;;;;;5921538;29;88400;-71
2022/04/30 16:47:05;;;;;;;3.72;2.85;;;22.00;70.60;;;;;;5920878;29;89534;-72
2022/04/30 16:50:08;;;;;;;4.55;3.17;;;22.00;71.00;;;;;;5921678;29;89162;-72
2022/04/30 16:53:10;;;;;;;4.22;3.40;;;22.00;71.30;;;;;;5920744;29;90029;-71
2022/04/30 16:59:34;;;;;;;5.68;3.55;;;21.90;71.60;;;;;;5921060;29;87332;-71
2022/04/30 17:02:36;;;;;;;4.55;3.53;;;21.90;71.80;;;;;;5920968;29;89137;-71
2022/04/30 17:05:38;;;;;;;6.32;4.25;;;21.90;71.90;;;;;;5921080;29;89224;-72
2022/04/30 17:08:41;;;;;;;4.43;3.80;;;21.90;72.00;;;;;;5920877;29;89117;-72
2022/04/30 17:11:44;;;;;;;3.88;3.55;;;21.90;72.00;;;;;;5920326;29;87897;-72
2022/04/30 17:14:46;;;;;;;4.18;3.80;;;21.90;72.20;;;;;;5921307;29;88350;-72
2022/04/30 17:17:49;;;;;;;4.18;3.80;;;21.90;72.00;;;;;;5920979;29;89223;-72
2022/04/30 17:20:51;;;;;;;4.32;3.83;;;21.90;72.00;;;;;;5920595;29;89237;-72
2022/04/30 17:23:53;;;;;;;3.90;3.60;;;21.90;71.80;;;;;;5920335;29;90031;-72
2022/04/30 17:27:00;;;;;;;4.68;3.75;;;21.90;71.70;;;;;;5920543;29;88012;-72
2022/04/30 17:30:02;;;;;;;4.88;4.30;;;21.90;71.60;;;;;;5920305;29;89346;-72
2022/04/30 17:39:44;;;;;;;4.35;3.95;;;21.90;71.50;;;;;;5920146;29;87349;-72
2022/04/30 17:42:48;;;;;;;4.38;3.97;;;21.90;71.60;;;;;;5920139;29;89106;-69
2022/04/30 17:45:50;;;;;;;4.72;4.28;;;21.90;71.40;;;;;;5920817;29;88291;-70
2022/04/30 17:48:53;;;;;;;4.78;4.07;;;21.80;71.40;;;;;;5929149;29;89282;-70
2022/04/30 17:51:55;;;;;;;4.60;4.13;;;21.90;71.70;;;;;;5922195;29;89134;-70
2022/04/30 17:54:57;;;;;;;4.43;4.03;;;21.80;72.20;;;;;;5923842;29;90313;-70
2022/04/30 17:58:02;;;;;;;4.20;3.88;;;21.80;72.30;;;;;;5922028;29;89149;-70
2022/04/30 18:08:12;;;;;;;4.65;4.18;;;21.90;73.20;;;;;;5910563;29;88715;-71
2022/04/30 18:11:14;;;;;;;4.88;3.80;;;21.80;73.20;;;;;;5898893;29;89062;-70
2022/04/30 18:14:20;;;;;;;5.28;4.15;;;21.80;73.30;;;;;;5918684;29;89096;-71
2022/04/30 18:17:23;;;;;;;6.43;3.95;;;21.90;73.50;;;;;;5892006;29;88421;-70
2022/04/30 18:20:25;;;;;;;5.97;4.20;;;21.80;73.70;;;;;;5908916;29;89186;-71
2022/04/30 18:23:27;;;;;;;6.43;4.13;;;21.90;73.60;;;;;;5902491;29;89089;-71
2022/04/30 18:26:29;;;;;;;4.32;3.97;;;21.80;73.50;;;;;;5888610;29;90093;-71
2022/04/30 18:29:33;;;;;;;5.45;4.38;;;21.90;74.00;;;;;;5900687;29;89111;-71
2022/04/30 18:32:35;;;;;;;5.68;4.43;;;21.90;73.80;;;;;;5913403;29;89707;-72
2022/04/30 18:35:37;;;;;;;5.03;4.40;;;21.90;73.80;;;;;;5907636;29;89138;-71
2022/04/30 18:38:39;;;;;;;7.15;4.38;;;21.90;74.20;;;;;;5919034;29;89093;-71
2022/04/30 18:41:41;;;;;;;5.47;4.18;;;21.90;74.30;;;;;;5906483;29;89116;-71
2022/04/30 18:44:46;;;;;;;4.82;4.40;;;21.90;74.30;;;;;;5885207;29;88863;-71
2022/04/30 18:47:48;;;;;;;8.45;5.18;;;21.80;74.20;;;;;;5910270;29;88303;-70
2022/04/30 18:50:50;;;;;;;7.22;5.40;;;21.90;74.50;;;;;;5898009;29;87933;-68
2022/04/30 19:03:52;;;;;;;5.70;5.13;;;21.90;74.60;;;;;;5883405;29;87792;-70
2022/04/30 19:06:54;;;;;;;9.13;5.60;;;21.90;74.30;;;;;;5892240;29;89089;-70
2022/04/30 19:09:56;;;;;;;5.65;4.82;;;22.00;74.50;;;;;;5899623;29;89374;-70
2022/04/30 19:12:58;;;;;;;5.50;5.00;;;21.90;74.30;;;;;;5884786;29;89196;-70
2022/04/30 19:16:02;;;;;;;6.35;4.80;;;22.00;74.00;;;;;;5895130;29;89311;-69
2022/04/30 19:19:05;;;;;;;5.85;4.60;;;22.00;73.80;;;;;;5897169;29;88402;-71
2022/04/30 19:22:07;;;;;;;4.18;3.85;;;22.00;73.70;;;;;;5877679;29;89610;-70
2022/04/30 19:25:10;;;;;;;5.22;4.10;;;22.00;73.60;;;;;;5882209;29;89123;-71
2022/04/30 19:28:12;;;;;;;4.97;4.47;;;22.00;73.50;;;;;;5878303;29;90010;-70
2022/04/30 19:31:16;;;;;;;5.38;4.45;;;22.00;73.30;;;;;;5890296;29;89085;-70
2022/04/30 19:34:19;;;;;;;4.70;4.30;;;22.00;73.20;;;;;;5898286;29;89126;-71
2022/04/30 19:37:22;;;;;;;5.25;4.20;;;22.00;73.00;;;;;;5896862;29;89546;-70
2022/04/30 19:40:25;;;;;;;4.60;4.20;;;22.10;73.00;;;;;;5899484;29;88003;-72
2022/04/30 19:43:27;;;;;;;5.85;4.00;;;22.00;72.90;;;;;;5906839;29;89490;-70
2022/04/30 19:46:30;;;;;;;4.53;3.95;;;22.00;73.00;;;;;;5906113;29;88149;-71
2022/04/30 19:49:32;;;;;;;4.63;4.22;;;22.10;73.10;;;;;;5902462;29;88468;-70
2022/04/30 19:52:34;;;;;;;4.07;3.70;;;22.00;73.20;;;;;;5896588;29;89123;-69
2022/04/30 19:55:38;;;;;;;4.68;4.05;;;22.00;73.20;;;;;;5895138;29;88012;-70
2022/04/30 19:58:41;;;;;;;4.03;3.72;;;22.00;73.20;;;;;;5887480;29;90043;-69
2022/04/30 20:02:03;;;;;;;4.80;4.35;;;22.00;73.20;;;;;;5890117;29;89181;-70
2022/04/30 20:05:06;;;;;;;4.43;4.00;;;22.00;72.90;;;;;;5887763;29;89566;-70
2022/04/30 20:08:08;;;;;;;4.60;4.13;;;22.00;73.10;;;;;;5907189;29;89170;-70
2022/04/30 20:17:51;;;;;;;4.38;3.97;;;22.00;73.30;;;;;;5875237;29;88257;-69
2022/04/30 20:20:53;;;;;;;3.97;3.60;;;22.00;73.50;;;;;;5887329;29;87614;-69
2022/04/30 20:23:57;;;;;;;5.78;3.47;;;22.00;73.60;;;;;;5897192;29;89620;-69
2022/04/30 20:27:00;;;;;;;5.63;3.70;;;22.00;73.60;;;;;;5883122;29;89162;-69
2022/04/30 20:30:03;;;;;;;4.40;3.40;;;22.00;73.70;;;;;;5880476;29;90499;-70
2022/04/30 20:36:42;;;;;;;4.45;3.90;;;21.90;73.60;;;;;;5896625;29;87284;-71
2022/04/30 20:39:44;;;;;;;4.97;3.50;;;22.00;73.60;;;;;;5901459;29;89093;-70
2022/04/30 20:42:46;;;;;;;4.93;3.60;;;21.90;73.70;;;;;;5904131;29;89101;-70
2022/04/30 20:45:48;;;;;;;3.70;3.40;;;21.90;73.40;;;;;;5907962;29;89276;-71
2022/04/30 20:48:51;;;;;;;5.55;4.00;;;21.90;73.30;;;;;;5897666;29;89083;-69
2022/04/30 20:51:55;;;;;;;5.25;3.30;;;21.90;73.70;;;;;;5897511;29;88365;-69
2022/04/30 20:54:57;;;;;;;5.13;3.40;;;22.00;73.80;;;;;;5911256;29;89186;-69
2022/04/30 20:57:59;;;;;;;4.95;3.03;;;21.90;73.70;;;;;;5907503;29;89590;-70
2022/04/30 21:01:01;;;;;;;5.07;3.13;;;22.00;73.90;;;;;;5901939;29;90300;-70
2022/04/30 21:04:05;;;;;;;4.53;3.50;;;21.90;73.80;;;;;;5911656;29;89423;-69
2022/04/30 21:07:07;;;;;;;3.80;3.40;;;21.90;74.00;;;;;;5898975;29;89167;-70
2022/04/30 21:10:09;;;;;;;3.83;3.53;;;21.90;74.00;;;;;;5899153;29;89098;-70
2022/04/30 21:13:11;;;;;;;5.07;3.47;;;21.90;74.00;;;;;;5898272;29;89154;-70
2022/04/30 21:16:15;;;;;;;4.32;3.47;;;21.90;74.10;;;;;;5896943;29;89096;-69
2022/04/30 21:19:19;;;;;;;3.92;3.53;;;21.90;74.10;;;;;;5894651;29;88034;-70
2022/04/30 21:22:22;;;;;;;4.05;3.63;;;21.90;74.10;;;;;;5899379;29;88493;-69
2022/04/30 21:25:25;;;;;;;7.22;3.95;;;21.90;74.20;;;;;;5892117;29;90582;-70
2022/04/30 21:28:27;;;;;;;7.65;4.05;;;21.90;74.10;;;;;;5913875;29;90571;-69
2022/04/30 21:31:29;;;;;;;6.65;4.20;;;21.90;74.10;;;;;;5906410;29;88856;-69
2022/04/30 21:34:33;;;;;;;4.68;3.85;;;21.90;74.20;;;;;;5906894;29;88974;-70
2022/04/30 21:37:35;;;;;;;5.47;4.05;;;21.90;74.20;;;;;;5913616;29;89180;-70
2022/04/30 21:43:57;;;;;;;5.18;4.32;;;21.90;74.20;;;;;;5910461;29;87373;-69
2022/04/30 21:46:59;;;;;;;6.35;4.18;;;21.90;74.10;;;;;;5906380;29;88785;-69
2022/04/30 21:50:02;;;;;;;5.65;4.57;;;21.90;74.00;;;;;;5909306;29;89441;-69
2022/04/30 21:53:04;;;;;;;5.55;4.50;;;21.90;74.10;;;;;;5914830;29;88445;-69
2022/04/30 22:02:47;;;;;;;7.07;4.97;;;21.80;74.00;;;;;;5918370;29;88190;-70
2022/04/30 22:05:50;;;;;;;5.72;5.15;;;21.80;73.90;;;;;;5899219;29;89350;-69
2022/04/30 22:08:52;;;;;;;5.75;5.10;;;21.90;74.00;;;;;;5899651;29;88372;-69
2022/04/30 22:11:54;;;;;;;6.88;5.32;;;21.80;73.90;;;;;;5907661;29;89133;-73
2022/04/30 22:14:56;;;;;;;45.72;17.95;;;21.80;75.10;;;;;;5912099;29;89136;-68
2022/04/30 22:17:58;;;;;;;1999.90;946.75;;;21.80;75.80;;;;;;5909852;29;89098;-72
2022/04/30 22:21:02;;;;;;;782.90;601.53;;;21.90;77.10;;;;;;5903991;29;89087;-69
2022/04/30 22:24:05;;;;;;;395.73;283.45;;;22.00;75.70;;;;;;5907582;29;88434;-71
2022/04/30 22:27:07;;;;;;;234.23;158.80;;;22.20;74.40;;;;;;5902351;29;89127;-71
2022/04/30 22:30:10;;;;;;;171.10;108.50;;;22.30;73.50;;;;;;5909088;29;89134;-72
2022/04/30 22:33:12;;;;;;;121.32;80.85;;;22.30;73.00;;;;;;5896253;29;89667;-72
2022/04/30 22:36:15;;;;;;;100.43;65.53;;;22.40;72.80;;;;;;5896928;29;89423;-71
2022/04/30 22:39:17;;;;;;;85.22;57.83;;;22.40;72.70;;;;;;5897360;29;89087;-74
2022/04/30 22:45:39;;;;;;;72.07;51.75;;;22.40;72.60;;;;;;5899286;29;87341;-70
2022/04/30 22:48:40;;;;;;;71.32;51.65;;;22.30;72.70;;;;;;5903187;29;89371;-71
2022/04/30 22:51:46;;;;;;;74.35;49.75;;;22.30;72.80;;;;;;5900630;29;89469;-71
2022/04/30 22:54:48;;;;;;;69.35;48.80;;;22.30;72.80;;;;;;5902745;29;88461;-70
2022/04/30 22:57:50;;;;;;;65.45;45.60;;;22.30;73.00;;;;;;5900305;29;89256;-71
2022/04/30 23:00:52;;;;;;;61.67;42.95;;;22.20;72.90;;;;;;5902720;29;89491;-71
2022/04/30 23:03:54;;;;;;;61.00;43.38;;;22.20;72.90;;;;;;5900723;29;90088;-70
2022/04/30 23:06:57;;;;;;;57.55;41.60;;;22.20;73.00;;;;;;5898484;29;89127;-71
2022/04/30 23:09:59;;;;;;;59.85;41.42;;;22.20;73.00;;;;;;5898942;29;89311;-71
2022/04/30 23:16:18;;;;;;;55.67;40.13;;;22.20;73.00;;;;;;5894597;29;88657;-71
2022/04/30 23:19:20;;;;;;;53.13;40.08;;;22.10;73.00;;;;;;5907192;29;89525;-72
2022/04/30 23:22:23;;;;;;;56.38;40.15;;;22.20;73.10;;;;;;5907589;29;89408;-71
2022/04/30 23:25:25;;;;;;;53.45;38.30;;;22.10;73.20;;;;;;5901696;29;88707;-71
2022/04/30 23:28:28;;;;;;;53.08;37.58;;;22.10;73.20;;;;;;5899483;29;87924;-71
2022/04/30 23:31:30;;;;;;;49.05;36.63;;;22.10;73.30;;;;;;5901371;29;88174;-72
2022/04/30 23:34:34;;;;;;;49.47;36.60;;;22.10;73.30;;;;;;5890000;29;90179;-71
2022/04/30 23:37:38;;;;;;;49.35;35.35;;;22.10;73.40;;;;;;5914081;29;88319;-72
2022/04/30 23:40:39;;;;;;;47.78;34.85;;;22.10;73.40;;;;;;5914466;29;89182;-72
2022/04/30 23:43:41;;;;;;;51.20;35.95;;;22.10;73.40;;;;;;5908100;29;89077;-71
2022/04/30 23:46:43;;;;;;;48.42;35.35;;;22.10;73.40;;;;;;5905204;29;89432;-72
2022/04/30 23:49:46;;;;;;;45.15;32.15;;;22.10;73.50;;;;;;5901214;29;87918;-72
2022/04/30 23:52:49;;;;;;;42.40;32.55;;;22.10;74.40;;;;;;5902601;29;89290;-71
2022/04/30 23:55:51;;;;;;;43.33;31.40;;;22.10;73.50;;;;;;5901122;29;87549;-71
2022/04/30 23:58:53;;;;;;;43.92;32.53;;;22.10;73.50;;;;;;5901376;29;89119;-72
